createdAt,value
2023-03-04T00:01:26.993Z,47.07
2023-03-04T00:04:28.453Z,47.10
2023-03-04T00:07:29.916Z,49.35
2023-03-04T00:10:31.407Z,47.13
2023-03-04T00:13:33.063Z,46.28
2023-03-04T00:16:34.551Z,46.28
2023-03-04T00:19:36.242Z,47.37
2023-03-04T00:22:38.055Z,48.58
2023-03-04T00:25:40.239Z,47.65
2023-03-04T00:28:43.503Z,47.65
2023-03-04T00:31:44.998Z,47.45
2023-03-04T00:34:46.937Z,46.55
2023-03-04T00:37:48.373Z,47.10
2023-03-04T00:40:51.124Z,46.67
2023-03-04T00:43:52.550Z,47.73
2023-03-04T00:46:54.024Z,45.03
2023-03-04T00:49:55.450Z,48.45
2023-03-04T00:52:56.943Z,48.97
2023-03-04T00:55:58.391Z,48.70
2023-03-04T00:58:59.893Z,52.13
2023-03-04T01:02:01.447Z,50.73
2023-03-04T01:05:04.405Z,50.97
2023-03-04T01:08:06.023Z,48.88
2023-03-04T01:11:07.656Z,49.37
2023-03-04T01:14:09.126Z,51.33
2023-03-04T01:17:12.160Z,55.87
2023-03-04T01:20:14.343Z,50.72
2023-03-04T01:23:16.609Z,49.75
2023-03-04T01:26:18.127Z,47.08
2023-03-04T01:29:19.553Z,46.27
2023-03-04T01:32:21.101Z,44.63
2023-03-04T01:35:23.538Z,46.97
2023-03-04T01:38:24.988Z,45.10
2023-03-04T01:41:27.436Z,46.10
2023-03-04T01:47:33.785Z,45.53
2023-03-04T01:50:35.897Z,43.42
2023-03-04T01:53:37.378Z,44.90
2023-03-04T01:56:40.113Z,44.40
2023-03-04T01:59:41.918Z,43.47
2023-03-04T02:02:43.483Z,43.97
2023-03-04T02:05:48.198Z,44.13
2023-03-04T02:08:49.619Z,43.30
2023-03-04T02:11:52.235Z,42.70
2023-03-04T02:14:53.657Z,43.15
2023-03-04T02:17:55.267Z,44.22
2023-03-04T02:21:08.956Z,43.50
2023-03-04T02:24:32.199Z,42.40
2023-03-04T02:27:33.716Z,41.90
2023-03-04T02:30:35.666Z,40.77
2023-03-04T02:33:37.126Z,40.05
2023-03-04T02:36:39.871Z,38.67
2023-03-04T02:39:47.304Z,39.95
2023-03-04T02:42:49.019Z,40.33
2023-03-04T02:45:51.345Z,42.30
2023-03-04T02:48:53.749Z,42.38
2023-03-04T02:58:20.650Z,40.83
2023-03-04T03:01:22.686Z,39.75
2023-03-04T03:04:25.282Z,41.10
2023-03-04T03:07:28.755Z,41.25
2023-03-04T03:10:31.218Z,41.90
2023-03-04T03:13:32.840Z,40.83
2023-03-04T03:19:36.833Z,40.90
2023-03-04T03:22:41.501Z,40.58
2023-03-04T03:25:44.037Z,40.08
2023-03-04T03:28:45.847Z,41.73
2023-03-04T03:31:47.384Z,41.97
2023-03-04T03:34:48.839Z,40.63
2023-03-04T03:37:50.309Z,39.90
2023-03-04T03:40:51.821Z,43.00
2023-03-04T03:43:53.239Z,40.30
2023-03-04T03:46:54.699Z,43.33
2023-03-04T03:49:56.086Z,41.73
2023-03-04T03:52:57.491Z,39.55
2023-03-04T03:55:59.200Z,40.25
2023-03-04T03:59:00.775Z,40.17
2023-03-04T04:02:02.283Z,40.70
2023-03-04T04:05:04.356Z,40.13
2023-03-04T04:08:05.762Z,41.88
2023-03-04T04:11:12.793Z,39.75
2023-03-04T04:14:14.740Z,39.35
2023-03-04T04:17:16.148Z,40.53
2023-03-04T04:20:17.583Z,38.97
2023-03-04T04:23:19.388Z,37.60
2023-03-04T04:26:20.862Z,34.67
2023-03-04T04:29:23.121Z,36.07
2023-03-04T04:32:24.615Z,37.42
2023-03-04T04:35:26.222Z,36.67
2023-03-04T04:38:27.766Z,37.43
2023-03-04T04:41:34.080Z,39.53
2023-03-04T04:44:36.197Z,37.45
2023-03-04T04:47:37.645Z,37.33
2023-03-04T04:50:39.059Z,36.50
2023-03-04T04:53:40.941Z,35.93
2023-03-04T04:56:42.422Z,38.83
2023-03-04T04:59:43.865Z,36.97
2023-03-04T05:02:45.333Z,36.75
2023-03-04T05:05:46.876Z,36.87
2023-03-04T05:08:48.967Z,37.93
2023-03-04T05:11:50.435Z,37.92
2023-03-04T05:14:51.910Z,37.63
2023-03-04T05:17:53.317Z,35.83
2023-03-04T05:20:57.205Z,36.40
2023-03-04T05:23:58.663Z,36.67
2023-03-04T05:27:00.625Z,35.17
2023-03-04T05:30:02.053Z,36.50
2023-03-04T05:33:03.495Z,36.53
2023-03-04T05:36:06.422Z,36.70
2023-03-04T05:39:07.809Z,38.17
2023-03-04T05:42:09.307Z,37.00
2023-03-04T05:45:11.243Z,35.40
2023-03-04T05:48:12.659Z,38.97
2023-03-04T05:51:14.213Z,38.22
2023-03-04T05:54:16.058Z,37.33
2023-03-04T05:57:17.478Z,36.10
2023-03-04T06:00:19.242Z,36.60
2023-03-04T06:03:22.530Z,36.17
2023-03-04T06:06:24.030Z,35.88
2023-03-04T06:09:25.441Z,37.23
2023-03-04T06:12:28.743Z,35.15
2023-03-04T06:15:30.752Z,37.20
2023-03-04T06:18:32.309Z,38.15
2023-03-04T06:21:33.878Z,37.23
2023-03-04T06:24:35.548Z,39.37
2023-03-04T06:27:37.057Z,39.63
2023-03-04T06:30:38.530Z,39.77
2023-03-04T06:33:40.061Z,38.80
2023-03-04T06:36:41.513Z,38.17
2023-03-04T06:39:42.964Z,37.67
2023-03-04T06:42:44.457Z,36.95
2023-03-04T06:45:46.390Z,37.33
2023-03-04T06:48:47.845Z,38.30
2023-03-04T06:51:49.268Z,42.13
2023-03-04T06:54:50.716Z,39.38
2023-03-04T06:57:52.156Z,37.43
2023-03-04T07:00:53.596Z,35.23
2023-03-04T07:03:56.880Z,35.63
2023-03-04T07:06:58.446Z,35.63
2023-03-04T07:09:59.923Z,31.37
2023-03-04T07:13:01.795Z,32.97
2023-03-04T07:16:03.805Z,30.88
2023-03-04T07:19:05.269Z,31.95
2023-03-04T07:22:06.697Z,31.80
2023-03-04T07:25:08.701Z,32.08
2023-03-04T07:28:10.178Z,31.40
2023-03-04T07:31:18.411Z,34.00
2023-03-04T07:34:19.907Z,31.83
2023-03-04T07:37:21.368Z,31.63
2023-03-04T07:40:23.194Z,33.35
2023-03-04T07:43:24.828Z,31.98
2023-03-04T07:46:26.364Z,32.80
2023-03-04T07:49:27.852Z,32.47
2023-03-04T07:52:29.377Z,31.67
2023-03-04T07:55:31.546Z,35.23
2023-03-04T07:58:33.189Z,32.83
2023-03-04T08:01:37.017Z,30.55
2023-03-04T08:04:38.633Z,32.08
2023-03-04T08:07:40.081Z,31.55
2023-03-04T08:10:41.746Z,33.20
2023-03-04T08:13:43.933Z,32.40
2023-03-04T08:16:45.417Z,34.60
2023-03-04T08:19:46.853Z,35.97
2023-03-04T08:22:48.305Z,36.73
2023-03-04T08:25:50.475Z,42.40
2023-03-04T08:28:53.696Z,35.97
2023-03-04T08:31:55.925Z,34.60
2023-03-04T08:34:57.553Z,33.75
2023-03-04T08:38:01.301Z,33.27
2023-03-04T08:41:04.280Z,33.47
2023-03-04T08:44:08.172Z,33.47
2023-03-04T08:47:10.253Z,35.58
2023-03-04T08:50:11.917Z,35.17
2023-03-04T08:53:14.237Z,34.63
2023-03-04T08:56:16.877Z,33.60
2023-03-04T08:59:18.262Z,34.58
2023-03-04T09:02:19.968Z,34.88
2023-03-04T09:05:21.449Z,36.10
2023-03-04T09:08:22.872Z,34.03
2023-03-04T09:11:24.269Z,32.60
2023-03-04T09:14:25.730Z,34.15
2023-03-04T09:17:27.261Z,32.07
2023-03-04T09:20:29.606Z,33.40
2023-03-04T09:26:34.843Z,33.20
2023-03-04T09:29:36.288Z,34.40
2023-03-04T09:32:38.069Z,35.37
2023-03-04T09:35:39.725Z,35.05
2023-03-04T09:38:42.572Z,35.25
2023-03-04T09:41:47.835Z,38.85
2023-03-04T09:44:49.258Z,36.42
2023-03-04T09:47:54.363Z,33.80
2023-03-04T09:51:18.438Z,30.98
2023-03-04T09:54:27.981Z,33.67
2023-03-04T09:58:04.921Z,33.10
2023-03-04T10:01:16.967Z,35.28
2023-03-04T10:04:36.436Z,33.33
2023-03-04T10:07:43.396Z,34.60
2023-03-04T10:10:45.820Z,33.58
2023-03-04T10:14:08.924Z,36.47
2023-03-04T10:17:19.661Z,35.03
2023-03-04T10:20:30.019Z,32.45
2023-03-04T10:23:34.296Z,35.67
2023-03-04T10:26:36.398Z,34.50
2023-03-04T10:29:38.075Z,36.88
2023-03-04T10:32:46.729Z,32.42
2023-03-04T10:36:04.366Z,31.20
2023-03-04T10:39:12.273Z,39.25
2023-03-04T10:42:13.679Z,38.55
2023-03-04T10:45:27.720Z,39.90
2023-03-04T10:48:30.971Z,40.78
2023-03-04T10:51:33.044Z,38.40
2023-03-04T10:54:47.289Z,39.80
2023-03-04T10:57:53.005Z,42.17
2023-03-04T11:01:04.416Z,38.55
2023-03-04T11:04:18.125Z,44.70
2023-03-04T11:07:21.697Z,39.92
2023-03-04T11:10:43.507Z,42.05
2023-03-04T11:13:52.427Z,40.53
2023-03-04T11:16:59.689Z,38.67
2023-03-04T11:20:11.833Z,35.83
2023-03-04T11:23:20.546Z,39.95
2023-03-04T11:26:35.442Z,38.35
2023-03-04T11:29:57.583Z,40.30
2023-03-04T11:33:23.952Z,41.35
2023-03-04T11:36:45.661Z,39.47
2023-03-04T11:39:59.099Z,39.00
2023-03-04T11:43:11.006Z,41.50
2023-03-04T11:46:29.904Z,38.85
2023-03-04T11:50:03.996Z,37.38
2023-03-04T11:53:24.770Z,41.65
2023-03-04T11:56:37.852Z,40.55
2023-03-04T11:59:46.775Z,43.25
2023-03-04T12:03:22.370Z,39.17
2023-03-04T12:07:08.064Z,41.80
2023-03-04T12:10:44.098Z,39.50
2023-03-04T12:14:07.878Z,41.70
2023-03-04T12:17:44.674Z,42.28
2023-03-04T12:21:11.235Z,39.38
2023-03-04T12:24:27.987Z,41.67
2023-03-04T12:27:46.527Z,39.05
2023-03-04T12:31:13.507Z,40.35
2023-03-04T12:34:27.825Z,40.25
2023-03-04T12:37:49.490Z,41.15
2023-03-04T12:41:18.600Z,34.90
2023-03-04T12:44:21.480Z,41.30
2023-03-04T12:47:33.707Z,33.88
2023-03-04T12:50:45.306Z,34.63
2023-03-04T12:54:14.735Z,38.65
2023-03-04T12:57:22.859Z,37.17
2023-03-04T13:00:39.524Z,33.95
2023-03-04T13:04:08.472Z,37.58
2023-03-04T13:07:39.878Z,35.83
2023-03-04T13:10:41.362Z,37.90
2023-03-04T13:13:42.849Z,37.27
2023-03-04T13:16:46.912Z,36.30
2023-03-04T13:19:52.530Z,36.85
2023-03-04T13:22:59.503Z,35.80
2023-03-04T13:26:23.122Z,37.17
2023-03-04T13:29:24.513Z,35.35
2023-03-04T13:32:38.217Z,36.72
2023-03-04T13:35:45.905Z,32.85
2023-03-04T13:39:40.119Z,34.08
2023-03-04T13:42:44.134Z,38.53
2023-03-04T13:45:45.548Z,36.92
2023-03-04T13:49:02.386Z,38.55
2023-03-04T13:52:41.267Z,38.63
2023-03-04T13:55:43.994Z,33.65
2023-03-04T13:58:45.735Z,35.28
2023-03-04T14:01:47.074Z,35.60
2023-03-04T14:04:54.683Z,35.00
2023-03-04T14:07:56.131Z,34.65
2023-03-04T14:10:57.714Z,35.77
2023-03-04T14:14:03.256Z,34.38
2023-03-04T14:17:06.780Z,32.30
2023-03-04T14:20:48.471Z,34.42
2023-03-04T14:24:01.189Z,33.35
2023-03-04T14:27:13.968Z,30.58
2023-03-04T14:30:39.471Z,31.30
2023-03-04T14:33:57.131Z,33.15
2023-03-04T14:36:59.565Z,33.95
2023-03-04T14:43:12.046Z,29.27
2023-03-04T14:46:18.827Z,31.85
2023-03-04T14:49:20.464Z,31.65
2023-03-04T14:52:42.042Z,30.63
2023-03-04T14:56:00.282Z,31.35
2023-03-04T14:59:02.440Z,31.52
2023-03-04T15:02:41.143Z,32.70
2023-03-04T15:05:42.931Z,32.28
2023-03-04T15:08:45.608Z,32.58
2023-03-04T15:11:52.923Z,31.77
2023-03-04T15:14:58.593Z,33.08
2023-03-04T15:18:01.941Z,34.22
2023-03-04T15:21:37.810Z,31.45
2023-03-04T15:24:40.075Z,28.60
2023-03-04T15:27:43.028Z,32.60
2023-03-04T15:30:45.008Z,31.98
2023-03-04T15:33:47.024Z,31.77
2023-03-04T15:36:51.885Z,33.47
2023-03-04T15:39:56.271Z,30.77
2023-03-04T15:43:00.659Z,30.58
2023-03-04T15:46:02.076Z,30.90
2023-03-04T15:49:03.791Z,29.80
2023-03-04T15:52:06.648Z,31.13
2023-03-04T15:55:15.159Z,28.85
2023-03-04T15:58:16.930Z,26.55
2023-03-04T16:01:18.378Z,27.10
2023-03-04T16:04:19.888Z,28.20
2023-03-04T16:07:24.927Z,26.70
2023-03-04T16:10:30.590Z,25.75
2023-03-04T16:13:32.173Z,29.05
2023-03-04T16:16:33.676Z,24.97
2023-03-04T16:19:35.157Z,24.03
2023-03-04T16:22:37.096Z,26.35
2023-03-04T16:25:38.708Z,24.02
2023-03-04T16:28:40.540Z,21.17
2023-03-04T16:31:42.100Z,23.25
2023-03-04T16:34:43.541Z,24.13
2023-03-04T16:37:45.882Z,24.13
2023-03-04T16:43:48.904Z,25.35
2023-03-04T16:46:50.455Z,24.03
2023-03-04T16:49:53.054Z,22.47
2023-03-04T16:52:55.852Z,23.63
2023-03-04T16:55:58.609Z,21.58
2023-03-04T16:59:00.183Z,21.80
2023-03-04T17:02:01.698Z,24.02
2023-03-04T17:05:04.243Z,24.67
2023-03-04T17:08:05.793Z,23.17
2023-03-04T17:11:08.162Z,21.97
2023-03-04T17:14:09.771Z,23.70
2023-03-04T17:17:11.506Z,21.77
2023-03-04T17:20:16.529Z,25.33
2023-03-04T17:23:18.095Z,24.25
2023-03-04T17:26:22.425Z,23.93
2023-03-04T17:29:24.183Z,22.08
2023-03-04T17:32:27.403Z,23.73
2023-03-04T17:35:28.871Z,24.58
2023-03-04T17:38:30.444Z,22.00
2023-03-04T17:41:33.787Z,23.83
2023-03-04T17:44:37.173Z,22.35
2023-03-04T17:47:39.162Z,22.83
2023-03-04T17:50:51.239Z,22.08
2023-03-04T17:53:52.672Z,21.88
2023-03-04T17:56:54.356Z,22.33
2023-03-04T17:59:56.191Z,21.55
2023-03-04T18:02:57.783Z,22.17
2023-03-04T18:05:59.285Z,21.93
2023-03-04T18:09:00.927Z,22.03
2023-03-04T18:12:02.353Z,21.60
2023-03-04T18:15:03.995Z,22.50
2023-03-04T18:18:05.416Z,21.80
2023-03-04T18:21:06.847Z,21.70
2023-03-04T18:24:09.606Z,23.42
2023-03-04T18:27:11.340Z,24.35
2023-03-04T18:30:18.143Z,29.25
2023-03-04T18:33:20.651Z,26.83
2023-03-04T18:36:22.189Z,25.52
2023-03-04T18:39:23.616Z,24.67
2023-03-04T18:42:25.131Z,25.35
2023-03-04T18:45:27.186Z,25.03
2023-03-04T18:48:31.120Z,26.88
2023-03-04T18:51:33.063Z,26.40
2023-03-04T18:54:34.524Z,26.05
2023-03-04T18:57:38.923Z,26.02
2023-03-04T19:00:40.453Z,27.75
2023-03-04T19:03:43.154Z,29.80
2023-03-04T19:06:44.662Z,28.63
2023-03-04T19:09:46.270Z,29.03
2023-03-04T19:12:47.759Z,27.50
2023-03-04T19:15:54.007Z,24.17
2023-03-04T19:18:55.442Z,24.35
2023-03-04T19:21:57.049Z,24.40
2023-03-04T19:24:58.484Z,25.17
2023-03-04T19:28:00.930Z,24.07
2023-03-04T19:34:07.500Z,35.55
2023-03-04T19:37:08.912Z,31.50
2023-03-04T19:40:11.432Z,31.47
2023-03-04T19:43:14.469Z,43.13
2023-03-04T19:46:16.096Z,39.17
2023-03-04T19:49:17.583Z,33.03
2023-03-04T19:52:19.261Z,35.27
2023-03-04T19:55:20.801Z,37.35
2023-03-04T19:58:22.296Z,32.77
2023-03-04T20:01:29.698Z,30.33
2023-03-04T20:04:31.287Z,30.23
2023-03-04T20:07:32.739Z,29.57
2023-03-04T20:10:36.976Z,29.90
2023-03-04T20:13:38.437Z,29.08
2023-03-04T20:16:39.917Z,28.87
2023-03-04T20:19:41.339Z,28.90
2023-03-04T20:22:42.820Z,28.83
2023-03-04T20:25:44.324Z,30.42
2023-03-04T20:28:45.789Z,30.70
2023-03-04T20:31:47.715Z,28.48
2023-03-04T20:34:53.993Z,31.60
2023-03-04T20:37:56.348Z,35.30
2023-03-04T20:43:59.489Z,35.63
2023-03-04T20:47:01.583Z,34.73
2023-03-04T20:50:03.259Z,26.70
2023-03-04T20:53:04.684Z,31.40
2023-03-04T20:56:06.184Z,27.73
2023-03-04T20:59:09.208Z,27.57
2023-03-04T21:02:15.026Z,30.23
2023-03-04T21:05:16.508Z,30.52
2023-03-04T21:08:18.046Z,30.15
2023-03-04T21:11:19.560Z,31.08
2023-03-04T21:14:27.350Z,33.80
2023-03-04T21:17:28.778Z,31.73
2023-03-04T21:20:30.269Z,29.53
2023-03-04T21:23:32.549Z,28.60
2023-03-04T21:26:34.033Z,27.27
2023-03-04T21:29:35.786Z,27.70
2023-03-04T21:32:37.446Z,24.65
2023-03-04T21:35:38.920Z,25.43
2023-03-04T21:38:44.873Z,24.87
2023-03-04T21:41:47.172Z,23.40
2023-03-04T21:47:52.798Z,26.30
2023-03-04T21:50:54.271Z,23.70
2023-03-04T21:53:55.768Z,22.93
2023-03-04T21:56:57.198Z,22.27
2023-03-04T21:59:58.705Z,23.00
2023-03-04T22:03:00.133Z,25.50
2023-03-04T22:06:04.898Z,23.33
2023-03-04T22:09:06.695Z,21.02
2023-03-04T22:12:08.305Z,23.48
2023-03-04T22:15:11.228Z,24.00
2023-03-04T22:18:14.181Z,22.80
2023-03-04T22:21:17.756Z,28.85
2023-03-04T22:24:20.025Z,27.23
2023-03-04T22:27:21.775Z,24.80
2023-03-04T22:30:23.320Z,23.80
2023-03-04T22:33:25.765Z,24.10
2023-03-04T22:39:30.270Z,21.30
2023-03-04T22:42:31.821Z,21.48
2023-03-04T22:45:33.499Z,22.30
2023-03-04T22:48:34.937Z,21.58
2023-03-04T22:51:37.055Z,23.80
2023-03-04T22:54:38.498Z,25.17
2023-03-04T22:57:40.248Z,23.42
2023-03-04T23:00:41.654Z,26.63
2023-03-04T23:03:45.372Z,27.98
2023-03-04T23:06:46.803Z,33.42
2023-03-04T23:09:48.225Z,33.10
2023-03-04T23:12:50.174Z,31.50
2023-03-04T23:15:51.821Z,31.98
2023-03-04T23:18:53.342Z,37.83
2023-03-04T23:21:54.871Z,32.43
2023-03-04T23:24:57.621Z,28.87
2023-03-04T23:27:59.075Z,27.88
2023-03-04T23:31:00.629Z,31.63
2023-03-04T23:34:02.859Z,28.17
2023-03-04T23:37:04.391Z,29.73
2023-03-04T23:40:06.431Z,36.50
2023-03-04T23:43:07.898Z,31.63
2023-03-04T23:46:11.452Z,29.80
2023-03-04T23:49:14.261Z,34.70
2023-03-04T23:52:15.738Z,32.53
2023-03-04T23:55:18.951Z,29.30
2023-03-04T23:58:20.388Z,27.15
